sensor_id;sensor_type;location;lat;lon;timestamp;P1;durP1;ratioP1;P2;durP2;ratioP2
14738;SDS011;7461;52.440;13.540;2022-11-15T00:01:38;48.28;;;43.78;;
14738;SDS011;7461;52.440;13.540;2022-11-15T00:04:07;49.70;;;45.25;;
14738;SDS011;7461;52.440;13.540;2022-11-15T00:06:34;47.70;;;43.22;;
14738;SDS011;7461;52.440;13.540;2022-11-15T00:09:01;50.20;;;45.25;;
14738;SDS011;7461;52.440;13.540;2022-11-15T00:11:28;50.20;;;45.70;;
14738;SDS011;7461;52.440;13.540;2022-11-15T00:13:56;51.58;;;46.83;;
14738;SDS011;7461;52.440;13.540;2022-11-15T00:16:23;48.58;;;44.42;;
14738;SDS011;7461;52.440;13.540;2022-11-15T00:18:50;50.55;;;46.17;;
14738;SDS011;7461;52.440;13.540;2022-11-15T00:21:19;51.10;;;46.60;;
14738;SDS011;7461;52.440;13.540;2022-11-15T00:23:46;55.10;;;50.13;;
14738;SDS011;7461;52.440;13.540;2022-11-15T00:26:13;53.72;;;49.20;;
14738;SDS011;7461;52.440;13.540;2022-11-15T00:28:41;51.65;;;47.17;;
14738;SDS011;7461;52.440;13.540;2022-11-15T00:31:09;53.47;;;48.67;;
14738;SDS011;7461;52.440;13.540;2022-11-15T00:33:39;50.58;;;46.08;;
14738;SDS011;7461;52.440;13.540;2022-11-15T00:36:09;50.80;;;46.08;;
14738;SDS011;7461;52.440;13.540;2022-11-15T00:38:39;49.80;;;45.35;;
14738;SDS011;7461;52.440;13.540;2022-11-15T00:41:06;51.63;;;46.58;;
14738;SDS011;7461;52.440;13.540;2022-11-15T00:43:33;53.60;;;48.63;;
14738;SDS011;7461;52.440;13.540;2022-11-15T00:46:00;49.70;;;45.40;;
14738;SDS011;7461;52.440;13.540;2022-11-15T00:48:28;50.67;;;45.83;;
14738;SDS011;7461;52.440;13.540;2022-11-15T00:50:56;50.00;;;45.65;;
14738;SDS011;7461;52.440;13.540;2022-11-15T00:53:23;52.60;;;47.80;;
14738;SDS011;7461;52.440;13.540;2022-11-15T00:55:52;53.33;;;48.58;;
14738;SDS011;7461;52.440;13.540;2022-11-15T00:58:19;51.33;;;46.72;;
14738;SDS011;7461;52.440;13.540;2022-11-15T01:00:46;51.92;;;47.05;;
14738;SDS011;7461;52.440;13.540;2022-11-15T01:03:13;51.85;;;47.10;;
14738;SDS011;7461;52.440;13.540;2022-11-15T01:05:40;51.92;;;47.35;;
14738;SDS011;7461;52.440;13.540;2022-11-15T01:08:10;54.88;;;50.28;;
14738;SDS011;7461;52.440;13.540;2022-11-15T01:10:38;53.65;;;48.30;;
14738;SDS011;7461;52.440;13.540;2022-11-15T01:13:07;51.03;;;46.63;;
14738;SDS011;7461;52.440;13.540;2022-11-15T01:15:38;53.25;;;48.63;;
14738;SDS011;7461;52.440;13.540;2022-11-15T01:18:06;51.20;;;46.60;;
14738;SDS011;7461;52.440;13.540;2022-11-15T01:20:38;52.28;;;47.30;;
14738;SDS011;7461;52.440;13.540;2022-11-15T01:23:06;53.90;;;49.08;;
14738;SDS011;7461;52.440;13.540;2022-11-15T01:25:33;51.95;;;47.35;;
14738;SDS011;7461;52.440;13.540;2022-11-15T01:28:00;52.95;;;48.30;;
14738;SDS011;7461;52.440;13.540;2022-11-15T01:30:28;54.08;;;49.40;;
14738;SDS011;7461;52.440;13.540;2022-11-15T01:32:55;53.92;;;48.97;;
14738;SDS011;7461;52.440;13.540;2022-11-15T01:35:22;54.72;;;50.00;;
14738;SDS011;7461;52.440;13.540;2022-11-15T01:37:49;52.25;;;47.58;;
14738;SDS011;7461;52.440;13.540;2022-11-15T01:40:16;54.28;;;49.53;;
14738;SDS011;7461;52.440;13.540;2022-11-15T01:42:43;53.08;;;47.38;;
14738;SDS011;7461;52.440;13.540;2022-11-15T01:45:11;49.58;;;45.38;;
14738;SDS011;7461;52.440;13.540;2022-11-15T01:47:42;51.03;;;46.25;;
14738;SDS011;7461;52.440;13.540;2022-11-15T01:50:12;53.70;;;48.65;;
14738;SDS011;7461;52.440;13.540;2022-11-15T01:52:41;54.63;;;49.83;;
14738;SDS011;7461;52.440;13.540;2022-11-15T01:55:09;50.35;;;45.88;;
14738;SDS011;7461;52.440;13.540;2022-11-15T01:57:40;52.47;;;47.83;;
14738;SDS011;7461;52.440;13.540;2022-11-15T02:00:10;54.08;;;49.15;;
14738;SDS011;7461;52.440;13.540;2022-11-15T02:02:38;54.95;;;49.72;;
14738;SDS011;7461;52.440;13.540;2022-11-15T02:05:08;55.83;;;50.67;;
14738;SDS011;7461;52.440;13.540;2022-11-15T02:07:35;53.60;;;48.80;;
14738;SDS011;7461;52.440;13.540;2022-11-15T02:10:04;51.80;;;47.05;;
14738;SDS011;7461;52.440;13.540;2022-11-15T02:12:34;51.03;;;46.28;;
14738;SDS011;7461;52.440;13.540;2022-11-15T02:15:02;51.80;;;47.05;;
14738;SDS011;7461;52.440;13.540;2022-11-15T02:17:37;53.38;;;48.75;;
14738;SDS011;7461;52.440;13.540;2022-11-15T02:20:30;55.22;;;50.50;;
14738;SDS011;7461;52.440;13.540;2022-11-15T02:29:28;51.70;;;47.05;;
14738;SDS011;7461;52.440;13.540;2022-11-15T02:32:16;51.03;;;46.50;;
14738;SDS011;7461;52.440;13.540;2022-11-15T02:34:48;50.03;;;45.63;;
14738;SDS011;7461;52.440;13.540;2022-11-15T02:37:21;49.97;;;45.67;;
14738;SDS011;7461;52.440;13.540;2022-11-15T02:39:56;46.72;;;42.83;;
14738;SDS011;7461;52.440;13.540;2022-11-15T02:42:28;51.30;;;46.83;;
14738;SDS011;7461;52.440;13.540;2022-11-15T02:51:56;48.28;;;43.65;;
14738;SDS011;7461;52.440;13.540;2022-11-15T02:54:23;54.95;;;50.00;;
14738;SDS011;7461;52.440;13.540;2022-11-15T02:56:52;54.15;;;49.10;;
14738;SDS011;7461;52.440;13.540;2022-11-15T02:59:31;51.70;;;46.92;;
14738;SDS011;7461;52.440;13.540;2022-11-15T03:02:22;52.30;;;47.72;;
14738;SDS011;7461;52.440;13.540;2022-11-15T03:04:58;51.08;;;46.58;;
14738;SDS011;7461;52.440;13.540;2022-11-15T03:07:32;50.65;;;45.75;;
14738;SDS011;7461;52.440;13.540;2022-11-15T03:10:06;51.95;;;47.30;;
14738;SDS011;7461;52.440;13.540;2022-11-15T03:12:45;50.50;;;46.10;;
14738;SDS011;7461;52.440;13.540;2022-11-15T03:15:18;48.55;;;44.03;;
14738;SDS011;7461;52.440;13.540;2022-11-15T03:17:51;53.20;;;48.08;;
14738;SDS011;7461;52.440;13.540;2022-11-15T03:20:22;51.72;;;46.88;;
14738;SDS011;7461;52.440;13.540;2022-11-15T03:22:54;53.50;;;48.47;;
14738;SDS011;7461;52.440;13.540;2022-11-15T03:25:24;51.20;;;46.60;;
14738;SDS011;7461;52.440;13.540;2022-11-15T03:27:56;51.20;;;46.67;;
14738;SDS011;7461;52.440;13.540;2022-11-15T03:30:25;50.55;;;46.00;;
14738;SDS011;7461;52.440;13.540;2022-11-15T03:32:53;51.65;;;47.13;;
14738;SDS011;7461;52.440;13.540;2022-11-15T03:35:23;53.72;;;48.92;;
14738;SDS011;7461;52.440;13.540;2022-11-15T03:37:54;56.05;;;50.65;;
14738;SDS011;7461;52.440;13.540;2022-11-15T03:40:29;51.45;;;46.65;;
14738;SDS011;7461;52.440;13.540;2022-11-15T03:43:02;55.60;;;50.25;;
14738;SDS011;7461;52.440;13.540;2022-11-15T03:45:35;53.67;;;48.85;;
14738;SDS011;7461;52.440;13.540;2022-11-15T03:48:07;55.63;;;50.53;;
14738;SDS011;7461;52.440;13.540;2022-11-15T03:50:39;52.83;;;47.58;;
14738;SDS011;7461;52.440;13.540;2022-11-15T03:53:09;54.47;;;49.55;;
14738;SDS011;7461;52.440;13.540;2022-11-15T03:55:37;52.03;;;47.60;;
14738;SDS011;7461;52.440;13.540;2022-11-15T03:58:04;52.83;;;48.35;;
14738;SDS011;7461;52.440;13.540;2022-11-15T04:00:31;53.72;;;48.78;;
14738;SDS011;7461;52.440;13.540;2022-11-15T04:02:58;52.58;;;47.45;;
14738;SDS011;7461;52.440;13.540;2022-11-15T04:05:25;54.25;;;49.35;;
14738;SDS011;7461;52.440;13.540;2022-11-15T04:07:52;54.42;;;49.47;;
14738;SDS011;7461;52.440;13.540;2022-11-15T04:10:21;51.28;;;46.67;;
14738;SDS011;7461;52.440;13.540;2022-11-15T04:15:23;51.67;;;47.22;;
14738;SDS011;7461;52.440;13.540;2022-11-15T04:17:51;54.20;;;49.05;;
14738;SDS011;7461;52.440;13.540;2022-11-15T04:20:20;58.47;;;52.85;;
14738;SDS011;7461;52.440;13.540;2022-11-15T04:23:07;53.53;;;48.90;;
14738;SDS011;7461;52.440;13.540;2022-11-15T04:25:55;53.13;;;47.92;;
14738;SDS011;7461;52.440;13.540;2022-11-15T04:28:25;53.80;;;49.30;;
14738;SDS011;7461;52.440;13.540;2022-11-15T04:30:52;51.90;;;47.38;;
14738;SDS011;7461;52.440;13.540;2022-11-15T04:33:19;52.45;;;47.88;;
14738;SDS011;7461;52.440;13.540;2022-11-15T04:35:47;51.30;;;46.65;;
14738;SDS011;7461;52.440;13.540;2022-11-15T04:38:28;54.00;;;49.25;;
14738;SDS011;7461;52.440;13.540;2022-11-15T04:40:57;53.45;;;48.72;;
14738;SDS011;7461;52.440;13.540;2022-11-15T04:43:24;52.22;;;47.53;;
14738;SDS011;7461;52.440;13.540;2022-11-15T04:45:51;52.15;;;47.58;;
14738;SDS011;7461;52.440;13.540;2022-11-15T04:48:18;56.53;;;51.55;;
14738;SDS011;7461;52.440;13.540;2022-11-15T04:50:47;52.58;;;47.92;;
14738;SDS011;7461;52.440;13.540;2022-11-15T04:55:49;50.75;;;45.72;;
14738;SDS011;7461;52.440;13.540;2022-11-15T04:58:18;53.15;;;48.30;;
14738;SDS011;7461;52.440;13.540;2022-11-15T05:00:44;51.38;;;46.70;;
14738;SDS011;7461;52.440;13.540;2022-11-15T05:03:11;53.60;;;48.60;;
14738;SDS011;7461;52.440;13.540;2022-11-15T05:05:56;51.42;;;46.90;;
14738;SDS011;7461;52.440;13.540;2022-11-15T05:08:24;55.15;;;50.28;;
14738;SDS011;7461;52.440;13.540;2022-11-15T05:10:51;52.47;;;47.88;;
14738;SDS011;7461;52.440;13.540;2022-11-15T05:13:19;52.60;;;47.88;;
14738;SDS011;7461;52.440;13.540;2022-11-15T05:15:46;54.58;;;49.67;;
14738;SDS011;7461;52.440;13.540;2022-11-15T05:18:13;53.58;;;48.83;;
14738;SDS011;7461;52.440;13.540;2022-11-15T05:20:40;52.22;;;47.17;;
14738;SDS011;7461;52.440;13.540;2022-11-15T05:23:07;52.75;;;47.72;;
14738;SDS011;7461;52.440;13.540;2022-11-15T05:25:35;51.55;;;46.28;;
14738;SDS011;7461;52.440;13.540;2022-11-15T05:28:03;52.30;;;47.60;;
14738;SDS011;7461;52.440;13.540;2022-11-15T05:30:31;58.42;;;53.03;;
14738;SDS011;7461;52.440;13.540;2022-11-15T05:32:58;51.88;;;47.40;;
14738;SDS011;7461;52.440;13.540;2022-11-15T05:35:27;51.67;;;46.80;;
14738;SDS011;7461;52.440;13.540;2022-11-15T05:37:59;54.42;;;49.45;;
14738;SDS011;7461;52.440;13.540;2022-11-15T05:40:26;50.47;;;45.58;;
14738;SDS011;7461;52.440;13.540;2022-11-15T05:42:54;49.90;;;45.33;;
14738;SDS011;7461;52.440;13.540;2022-11-15T05:45:21;54.58;;;49.35;;
14738;SDS011;7461;52.440;13.540;2022-11-15T05:47:50;50.28;;;45.60;;
14738;SDS011;7461;52.440;13.540;2022-11-15T05:50:17;52.97;;;48.13;;
14738;SDS011;7461;52.440;13.540;2022-11-15T05:52:45;54.58;;;49.67;;
14738;SDS011;7461;52.440;13.540;2022-11-15T05:55:13;52.25;;;47.35;;
14738;SDS011;7461;52.440;13.540;2022-11-15T05:57:40;52.42;;;47.70;;
14738;SDS011;7461;52.440;13.540;2022-11-15T06:00:08;53.85;;;48.78;;
14738;SDS011;7461;52.440;13.540;2022-11-15T06:02:36;54.40;;;49.50;;
14738;SDS011;7461;52.440;13.540;2022-11-15T06:05:04;53.60;;;48.97;;
14738;SDS011;7461;52.440;13.540;2022-11-15T06:07:32;52.95;;;48.38;;
14738;SDS011;7461;52.440;13.540;2022-11-15T06:09:59;53.22;;;48.33;;
14738;SDS011;7461;52.440;13.540;2022-11-15T06:12:25;52.15;;;47.65;;
14738;SDS011;7461;52.440;13.540;2022-11-15T06:14:52;54.97;;;49.90;;
14738;SDS011;7461;52.440;13.540;2022-11-15T06:17:19;79.30;;;72.60;;
14738;SDS011;7461;52.440;13.540;2022-11-15T06:19:46;73.07;;;66.85;;
14738;SDS011;7461;52.440;13.540;2022-11-15T06:22:15;72.20;;;65.72;;
14738;SDS011;7461;52.440;13.540;2022-11-15T06:28:04;61.80;;;55.95;;
14738;SDS011;7461;52.440;13.540;2022-11-15T06:30:31;66.50;;;60.35;;
14738;SDS011;7461;52.440;13.540;2022-11-15T06:32:58;71.55;;;64.38;;
14738;SDS011;7461;52.440;13.540;2022-11-15T06:35:26;66.05;;;59.88;;
14738;SDS011;7461;52.440;13.540;2022-11-15T06:37:55;64.72;;;58.72;;
14738;SDS011;7461;52.440;13.540;2022-11-15T06:40:27;58.42;;;53.03;;
14738;SDS011;7461;52.440;13.540;2022-11-15T06:42:56;59.50;;;53.95;;
14738;SDS011;7461;52.440;13.540;2022-11-15T06:45:24;56.55;;;51.60;;
14738;SDS011;7461;52.440;13.540;2022-11-15T06:47:51;58.22;;;52.92;;
14738;SDS011;7461;52.440;13.540;2022-11-15T06:50:18;58.92;;;53.67;;
14738;SDS011;7461;52.440;13.540;2022-11-15T06:52:45;69.75;;;63.55;;
14738;SDS011;7461;52.440;13.540;2022-11-15T06:55:14;70.90;;;64.40;;
14738;SDS011;7461;52.440;13.540;2022-11-15T06:57:46;76.82;;;69.63;;
14738;SDS011;7461;52.440;13.540;2022-11-15T07:00:15;68.90;;;62.13;;
14738;SDS011;7461;52.440;13.540;2022-11-15T07:02:43;56.65;;;51.22;;
14738;SDS011;7461;52.440;13.540;2022-11-15T07:05:10;58.22;;;52.92;;
14738;SDS011;7461;52.440;13.540;2022-11-15T07:07:38;54.25;;;49.28;;
14738;SDS011;7461;52.440;13.540;2022-11-15T07:10:06;56.10;;;50.50;;
14738;SDS011;7461;52.440;13.540;2022-11-15T07:12:35;52.15;;;47.42;;
14738;SDS011;7461;52.440;13.540;2022-11-15T07:15:03;55.58;;;50.13;;
14738;SDS011;7461;52.440;13.540;2022-11-15T07:17:31;51.80;;;47.33;;
14738;SDS011;7461;52.440;13.540;2022-11-15T07:19:58;54.10;;;49.10;;
14738;SDS011;7461;52.440;13.540;2022-11-15T07:22:25;57.28;;;52.10;;
14738;SDS011;7461;52.440;13.540;2022-11-15T07:24:52;54.20;;;48.95;;
14738;SDS011;7461;52.440;13.540;2022-11-15T07:27:19;54.78;;;49.55;;
14738;SDS011;7461;52.440;13.540;2022-11-15T07:29:48;53.08;;;48.30;;
14738;SDS011;7461;52.440;13.540;2022-11-15T07:32:15;56.83;;;51.63;;
14738;SDS011;7461;52.440;13.540;2022-11-15T07:34:43;53.15;;;48.10;;
14738;SDS011;7461;52.440;13.540;2022-11-15T07:37:12;63.10;;;56.85;;
14738;SDS011;7461;52.440;13.540;2022-11-15T07:39:40;56.17;;;51.10;;
14738;SDS011;7461;52.440;13.540;2022-11-15T07:42:07;55.22;;;50.03;;
14738;SDS011;7461;52.440;13.540;2022-11-15T07:44:52;53.92;;;48.70;;
14738;SDS011;7461;52.440;13.540;2022-11-15T07:47:20;56.22;;;50.97;;
14738;SDS011;7461;52.440;13.540;2022-11-15T07:49:47;56.67;;;51.40;;
14738;SDS011;7461;52.440;13.540;2022-11-15T07:52:14;54.72;;;49.65;;
14738;SDS011;7461;52.440;13.540;2022-11-15T07:54:41;55.70;;;50.50;;
14738;SDS011;7461;52.440;13.540;2022-11-15T07:57:08;54.42;;;49.53;;
14738;SDS011;7461;52.440;13.540;2022-11-15T07:59:35;57.75;;;52.38;;
14738;SDS011;7461;52.440;13.540;2022-11-15T08:02:03;55.75;;;50.33;;
14738;SDS011;7461;52.440;13.540;2022-11-15T08:04:30;54.92;;;50.10;;
14738;SDS011;7461;52.440;13.540;2022-11-15T08:06:58;55.20;;;49.67;;
14738;SDS011;7461;52.440;13.540;2022-11-15T08:09:24;58.78;;;53.28;;
14738;SDS011;7461;52.440;13.540;2022-11-15T08:11:51;57.08;;;51.92;;
14738;SDS011;7461;52.440;13.540;2022-11-15T08:14:18;57.53;;;51.83;;
14738;SDS011;7461;52.440;13.540;2022-11-15T08:16:47;56.20;;;50.92;;
14738;SDS011;7461;52.440;13.540;2022-11-15T08:19:15;56.17;;;50.80;;
14738;SDS011;7461;52.440;13.540;2022-11-15T08:21:42;56.35;;;50.72;;
14738;SDS011;7461;52.440;13.540;2022-11-15T08:24:09;55.58;;;50.50;;
14738;SDS011;7461;52.440;13.540;2022-11-15T08:26:37;56.08;;;50.72;;
14738;SDS011;7461;52.440;13.540;2022-11-15T08:29:04;54.92;;;49.88;;
14738;SDS011;7461;52.440;13.540;2022-11-15T08:31:32;54.17;;;49.17;;
14738;SDS011;7461;52.440;13.540;2022-11-15T08:34:07;58.30;;;52.67;;
14738;SDS011;7461;52.440;13.540;2022-11-15T08:36:51;54.65;;;49.58;;
14738;SDS011;7461;52.440;13.540;2022-11-15T08:39:18;61.65;;;55.45;;
14738;SDS011;7461;52.440;13.540;2022-11-15T08:41:45;52.65;;;47.83;;
14738;SDS011;7461;52.440;13.540;2022-11-15T08:44:12;55.95;;;51.03;;
14738;SDS011;7461;52.440;13.540;2022-11-15T08:46:39;55.60;;;50.70;;
14738;SDS011;7461;52.440;13.540;2022-11-15T08:49:06;57.22;;;51.90;;
14738;SDS011;7461;52.440;13.540;2022-11-15T08:51:33;57.53;;;52.13;;
14738;SDS011;7461;52.440;13.540;2022-11-15T08:54:01;54.83;;;49.75;;
14738;SDS011;7461;52.440;13.540;2022-11-15T08:56:28;54.10;;;48.90;;
14738;SDS011;7461;52.440;13.540;2022-11-15T08:58:55;51.75;;;46.92;;
14738;SDS011;7461;52.440;13.540;2022-11-15T09:01:25;53.83;;;49.30;;
14738;SDS011;7461;52.440;13.540;2022-11-15T09:03:52;51.72;;;46.63;;
14738;SDS011;7461;52.440;13.540;2022-11-15T09:06:19;54.17;;;49.47;;
14738;SDS011;7461;52.440;13.540;2022-11-15T09:08:46;53.92;;;49.30;;
14738;SDS011;7461;52.440;13.540;2022-11-15T09:11:21;51.22;;;46.67;;
14738;SDS011;7461;52.440;13.540;2022-11-15T09:13:48;54.22;;;49.25;;
14738;SDS011;7461;52.440;13.540;2022-11-15T09:16:15;53.13;;;47.92;;
14738;SDS011;7461;52.440;13.540;2022-11-15T09:18:42;55.03;;;49.85;;
14738;SDS011;7461;52.440;13.540;2022-11-15T09:21:09;53.97;;;49.13;;
14738;SDS011;7461;52.440;13.540;2022-11-15T09:23:36;51.60;;;46.92;;
14738;SDS011;7461;52.440;13.540;2022-11-15T09:26:04;50.75;;;46.45;;
14738;SDS011;7461;52.440;13.540;2022-11-15T09:28:33;52.55;;;47.80;;
14738;SDS011;7461;52.440;13.540;2022-11-15T09:31:02;56.85;;;51.75;;
14738;SDS011;7461;52.440;13.540;2022-11-15T09:33:30;50.70;;;46.42;;
14738;SDS011;7461;52.440;13.540;2022-11-15T09:35:59;59.28;;;53.65;;
14738;SDS011;7461;52.440;13.540;2022-11-15T09:38:27;51.50;;;47.33;;
14738;SDS011;7461;52.440;13.540;2022-11-15T09:40:58;51.45;;;46.75;;
14738;SDS011;7461;52.440;13.540;2022-11-15T09:44:08;51.33;;;46.40;;
14738;SDS011;7461;52.440;13.540;2022-11-15T09:46:51;54.80;;;50.00;;
14738;SDS011;7461;52.440;13.540;2022-11-15T09:49:26;49.60;;;45.42;;
14738;SDS011;7461;52.440;13.540;2022-11-15T09:51:55;45.92;;;41.92;;
14738;SDS011;7461;52.440;13.540;2022-11-15T09:54:26;46.58;;;42.42;;
14738;SDS011;7461;52.440;13.540;2022-11-15T09:56:56;45.22;;;41.30;;
14738;SDS011;7461;52.440;13.540;2022-11-15T09:59:40;45.25;;;41.38;;
14738;SDS011;7461;52.440;13.540;2022-11-15T10:02:19;45.78;;;41.85;;
14738;SDS011;7461;52.440;13.540;2022-11-15T10:05:00;39.63;;;36.10;;
14738;SDS011;7461;52.440;13.540;2022-11-15T10:07:30;38.65;;;35.38;;
14738;SDS011;7461;52.440;13.540;2022-11-15T10:10:08;36.95;;;33.72;;
14738;SDS011;7461;52.440;13.540;2022-11-15T10:12:43;33.35;;;30.73;;
14738;SDS011;7461;52.440;13.540;2022-11-15T10:15:16;33.65;;;30.88;;
14738;SDS011;7461;52.440;13.540;2022-11-15T10:20:34;29.45;;;27.00;;
14738;SDS011;7461;52.440;13.540;2022-11-15T10:23:10;28.20;;;25.90;;
14738;SDS011;7461;52.440;13.540;2022-11-15T10:25:40;29.60;;;27.15;;
14738;SDS011;7461;52.440;13.540;2022-11-15T10:28:09;28.08;;;25.67;;
14738;SDS011;7461;52.440;13.540;2022-11-15T10:30:42;28.42;;;26.08;;
14738;SDS011;7461;52.440;13.540;2022-11-15T10:33:19;29.05;;;26.73;;
14738;SDS011;7461;52.440;13.540;2022-11-15T10:38:52;26.80;;;24.80;;
14738;SDS011;7461;52.440;13.540;2022-11-15T10:41:29;27.13;;;24.67;;
14738;SDS011;7461;52.440;13.540;2022-11-15T10:44:06;27.88;;;25.77;;
14738;SDS011;7461;52.440;13.540;2022-11-15T10:46:46;24.73;;;22.90;;
14738;SDS011;7461;52.440;13.540;2022-11-15T10:49:16;24.45;;;22.55;;
14738;SDS011;7461;52.440;13.540;2022-11-15T10:51:45;24.60;;;22.63;;
14738;SDS011;7461;52.440;13.540;2022-11-15T10:54:15;27.63;;;25.52;;
14738;SDS011;7461;52.440;13.540;2022-11-15T10:56:50;24.75;;;22.75;;
14738;SDS011;7461;52.440;13.540;2022-11-15T10:59:20;27.23;;;25.08;;
14738;SDS011;7461;52.440;13.540;2022-11-15T11:01:53;24.17;;;22.45;;
14738;SDS011;7461;52.440;13.540;2022-11-15T11:04:20;26.10;;;24.08;;
14738;SDS011;7461;52.440;13.540;2022-11-15T11:06:49;23.98;;;21.90;;
14738;SDS011;7461;52.440;13.540;2022-11-15T11:09:27;25.67;;;23.67;;
14738;SDS011;7461;52.440;13.540;2022-11-15T11:11:57;24.17;;;22.10;;
14738;SDS011;7461;52.440;13.540;2022-11-15T11:14:25;24.85;;;22.80;;
14738;SDS011;7461;52.440;13.540;2022-11-15T11:16:59;25.73;;;23.45;;
14738;SDS011;7461;52.440;13.540;2022-11-15T11:19:35;24.02;;;22.20;;
14738;SDS011;7461;52.440;13.540;2022-11-15T11:22:15;26.38;;;24.23;;
14738;SDS011;7461;52.440;13.540;2022-11-15T11:24:49;28.20;;;26.05;;
14738;SDS011;7461;52.440;13.540;2022-11-15T11:27:29;26.27;;;24.38;;
14738;SDS011;7461;52.440;13.540;2022-11-15T11:30:08;27.52;;;25.33;;
14738;SDS011;7461;52.440;13.540;2022-11-15T11:32:55;23.30;;;21.55;;
14738;SDS011;7461;52.440;13.540;2022-11-15T11:35:36;24.83;;;22.95;;
14738;SDS011;7461;52.440;13.540;2022-11-15T11:38:23;26.90;;;24.70;;
14738;SDS011;7461;52.440;13.540;2022-11-15T11:41:10;24.88;;;23.10;;
14738;SDS011;7461;52.440;13.540;2022-11-15T11:43:48;22.92;;;21.30;;
14738;SDS011;7461;52.440;13.540;2022-11-15T11:46:30;25.08;;;23.17;;
14738;SDS011;7461;52.440;13.540;2022-11-15T11:49:12;22.45;;;20.83;;
14738;SDS011;7461;52.440;13.540;2022-11-15T11:51:45;23.65;;;21.75;;
14738;SDS011;7461;52.440;13.540;2022-11-15T11:54:18;22.88;;;21.05;;
14738;SDS011;7461;52.440;13.540;2022-11-15T11:56:48;23.10;;;21.33;;
14738;SDS011;7461;52.440;13.540;2022-11-15T11:59:21;22.63;;;20.80;;
14738;SDS011;7461;52.440;13.540;2022-11-15T12:01:51;22.65;;;20.70;;
14738;SDS011;7461;52.440;13.540;2022-11-15T12:04:20;22.80;;;21.10;;
14738;SDS011;7461;52.440;13.540;2022-11-15T12:06:53;21.15;;;19.60;;
14738;SDS011;7461;52.440;13.540;2022-11-15T12:09:26;21.25;;;19.65;;
14738;SDS011;7461;52.440;13.540;2022-11-15T12:11:59;21.88;;;20.13;;
14738;SDS011;7461;52.440;13.540;2022-11-15T12:14:33;21.23;;;19.67;;
14738;SDS011;7461;52.440;13.540;2022-11-15T12:17:14;21.65;;;19.70;;
14738;SDS011;7461;52.440;13.540;2022-11-15T12:19:45;22.02;;;20.08;;
14738;SDS011;7461;52.440;13.540;2022-11-15T12:22:13;22.00;;;20.30;;
14738;SDS011;7461;52.440;13.540;2022-11-15T12:24:48;21.90;;;20.23;;
14738;SDS011;7461;52.440;13.540;2022-11-15T12:27:19;20.35;;;18.77;;
14738;SDS011;7461;52.440;13.540;2022-11-15T12:30:00;19.90;;;18.15;;
14738;SDS011;7461;52.440;13.540;2022-11-15T12:32:30;20.00;;;18.40;;
14738;SDS011;7461;52.440;13.540;2022-11-15T12:35:02;19.33;;;17.35;;
14738;SDS011;7461;52.440;13.540;2022-11-15T12:40:18;20.67;;;19.08;;
14738;SDS011;7461;52.440;13.540;2022-11-15T12:45:55;21.45;;;19.95;;
14738;SDS011;7461;52.440;13.540;2022-11-15T12:54:52;18.92;;;17.52;;
14738;SDS011;7461;52.440;13.540;2022-11-15T12:57:30;18.80;;;17.40;;
14738;SDS011;7461;52.440;13.540;2022-11-15T13:00:04;20.20;;;18.50;;
14738;SDS011;7461;52.440;13.540;2022-11-15T13:02:55;19.83;;;18.05;;
14738;SDS011;7461;52.440;13.540;2022-11-15T13:06:05;18.67;;;17.27;;
14738;SDS011;7461;52.440;13.540;2022-11-15T13:08:39;20.10;;;18.60;;
14738;SDS011;7461;52.440;13.540;2022-11-15T13:22:59;24.50;;;22.48;;
14738;SDS011;7461;52.440;13.540;2022-11-15T13:28:42;21.95;;;20.38;;
14738;SDS011;7461;52.440;13.540;2022-11-15T13:31:23;22.90;;;21.10;;
14738;SDS011;7461;52.440;13.540;2022-11-15T13:33:54;23.63;;;21.63;;
14738;SDS011;7461;52.440;13.540;2022-11-15T13:36:25;23.17;;;21.50;;
14738;SDS011;7461;52.440;13.540;2022-11-15T13:38:55;21.40;;;19.52;;
14738;SDS011;7461;52.440;13.540;2022-11-15T13:41:24;22.73;;;21.13;;
14738;SDS011;7461;52.440;13.540;2022-11-15T13:43:52;23.08;;;21.23;;
14738;SDS011;7461;52.440;13.540;2022-11-15T13:46:21;23.08;;;21.25;;
14738;SDS011;7461;52.440;13.540;2022-11-15T13:48:53;21.40;;;19.50;;
14738;SDS011;7461;52.440;13.540;2022-11-15T13:51:22;23.08;;;20.77;;
14738;SDS011;7461;52.440;13.540;2022-11-15T13:53:56;19.15;;;17.42;;
14738;SDS011;7461;52.440;13.540;2022-11-15T13:56:25;21.20;;;19.42;;
14738;SDS011;7461;52.440;13.540;2022-11-15T13:58:53;21.15;;;19.17;;
14738;SDS011;7461;52.440;13.540;2022-11-15T14:01:21;19.70;;;18.13;;
14738;SDS011;7461;52.440;13.540;2022-11-15T14:03:53;21.25;;;19.58;;
14738;SDS011;7461;52.440;13.540;2022-11-15T14:06:23;21.63;;;19.77;;
14738;SDS011;7461;52.440;13.540;2022-11-15T14:11:57;19.35;;;17.70;;
14738;SDS011;7461;52.440;13.540;2022-11-15T14:14:25;19.10;;;17.60;;
14738;SDS011;7461;52.440;13.540;2022-11-15T14:16:53;19.98;;;18.48;;
14738;SDS011;7461;52.440;13.540;2022-11-15T14:19:37;20.70;;;18.90;;
14738;SDS011;7461;52.440;13.540;2022-11-15T14:25:04;20.33;;;18.83;;
14738;SDS011;7461;52.440;13.540;2022-11-15T14:27:44;19.25;;;17.92;;
14738;SDS011;7461;52.440;13.540;2022-11-15T14:30:32;20.20;;;18.42;;
14738;SDS011;7461;52.440;13.540;2022-11-15T14:32:59;19.23;;;17.83;;
14738;SDS011;7461;52.440;13.540;2022-11-15T14:35:27;21.42;;;19.88;;
14738;SDS011;7461;52.440;13.540;2022-11-15T14:37:54;18.70;;;17.13;;
14738;SDS011;7461;52.440;13.540;2022-11-15T14:40:21;19.55;;;17.98;;
14738;SDS011;7461;52.440;13.540;2022-11-15T14:42:49;20.75;;;19.15;;
14738;SDS011;7461;52.440;13.540;2022-11-15T14:45:16;19.30;;;17.50;;
14738;SDS011;7461;52.440;13.540;2022-11-15T14:47:46;18.33;;;16.85;;
14738;SDS011;7461;52.440;13.540;2022-11-15T14:50:14;18.80;;;17.25;;
14738;SDS011;7461;52.440;13.540;2022-11-15T14:52:43;20.48;;;18.90;;
14738;SDS011;7461;52.440;13.540;2022-11-15T14:55:12;20.40;;;18.75;;
14738;SDS011;7461;52.440;13.540;2022-11-15T14:57:44;20.33;;;18.38;;
14738;SDS011;7461;52.440;13.540;2022-11-15T15:00:12;21.35;;;19.38;;
14738;SDS011;7461;52.440;13.540;2022-11-15T15:02:40;20.58;;;18.83;;
14738;SDS011;7461;52.440;13.540;2022-11-15T15:05:16;19.50;;;17.77;;
14738;SDS011;7461;52.440;13.540;2022-11-15T15:07:44;20.85;;;19.23;;
14738;SDS011;7461;52.440;13.540;2022-11-15T15:10:12;19.92;;;18.27;;
14738;SDS011;7461;52.440;13.540;2022-11-15T15:12:41;20.73;;;19.02;;
14738;SDS011;7461;52.440;13.540;2022-11-15T15:15:12;19.45;;;17.77;;
14738;SDS011;7461;52.440;13.540;2022-11-15T15:17:45;20.52;;;18.85;;
14738;SDS011;7461;52.440;13.540;2022-11-15T15:20:15;19.83;;;18.20;;
14738;SDS011;7461;52.440;13.540;2022-11-15T15:22:43;19.55;;;18.08;;
14738;SDS011;7461;52.440;13.540;2022-11-15T15:25:22;20.33;;;18.50;;
14738;SDS011;7461;52.440;13.540;2022-11-15T15:27:52;19.02;;;17.50;;
14738;SDS011;7461;52.440;13.540;2022-11-15T15:30:23;16.65;;;15.43;;
14738;SDS011;7461;52.440;13.540;2022-11-15T15:32:50;17.25;;;16.00;;
14738;SDS011;7461;52.440;13.540;2022-11-15T15:35:20;19.35;;;18.00;;
14738;SDS011;7461;52.440;13.540;2022-11-15T15:37:48;19.92;;;18.52;;
14738;SDS011;7461;52.440;13.540;2022-11-15T15:40:16;18.63;;;17.10;;
14738;SDS011;7461;52.440;13.540;2022-11-15T15:42:45;18.20;;;16.85;;